createdAt,value
2023-04-06T00:02:09.860Z,102014.72
2023-04-06T00:04:37.625Z,102008.91
2023-04-06T00:07:05.728Z,102008.38
2023-04-06T00:09:33.403Z,102005.13
2023-04-06T00:12:02.675Z,102001.13
2023-04-06T00:14:30.448Z,101992.00
2023-04-06T00:16:58.164Z,101990.59
2023-04-06T00:19:26.127Z,101993.53
2023-04-06T00:21:53.888Z,101993.00
2023-04-06T00:24:21.721Z,101987.84
2023-04-06T00:26:49.506Z,101994.13
2023-04-06T00:29:18.724Z,101989.19
2023-04-06T00:31:46.932Z,101985.16
2023-04-06T00:34:15.932Z,101989.69
2023-04-06T00:36:43.688Z,101986.41
2023-04-06T00:39:11.949Z,101984.00
2023-04-06T00:41:41.168Z,101983.34
2023-04-06T00:44:09.052Z,101980.00
2023-04-06T00:46:38.109Z,101967.94
2023-04-06T00:49:06.066Z,101964.66
2023-04-06T00:51:34.047Z,101974.81
2023-04-06T00:54:01.774Z,101969.97
2023-04-06T00:56:29.565Z,101968.47
2023-04-06T00:58:57.981Z,101972.03
2023-04-06T01:01:26.597Z,101967.81
2023-04-06T01:03:56.328Z,101962.56
2023-04-06T01:06:23.986Z,101961.09
2023-04-06T01:08:51.709Z,101967.38
2023-04-06T01:11:19.918Z,101954.47
2023-04-06T01:13:47.985Z,101955.28
2023-04-06T01:16:15.765Z,101953.81
2023-04-06T01:18:43.519Z,101945.13
2023-04-06T01:21:16.371Z,101948.56
2023-04-06T01:23:46.967Z,101938.28
2023-04-06T01:26:15.257Z,101944.66
2023-04-06T01:28:43.061Z,101947.47
2023-04-06T01:31:11.269Z,101941.50
2023-04-06T01:33:38.967Z,101944.31
2023-04-06T01:36:07.385Z,101941.69
2023-04-06T01:38:35.093Z,101950.41
2023-04-06T01:41:04.456Z,101953.03
2023-04-06T01:43:32.204Z,101951.25
2023-04-06T01:45:59.904Z,101946.94
2023-04-06T01:48:27.809Z,101942.63
2023-04-06T01:50:55.825Z,101941.88
2023-04-06T01:53:23.499Z,101938.59
2023-04-06T01:55:51.413Z,101936.09
2023-04-06T01:58:20.424Z,101939.72
2023-04-06T02:00:48.271Z,101936.69
2023-04-06T02:03:16.492Z,101935.25
2023-04-06T02:05:44.223Z,101935.56
2023-04-06T02:08:11.886Z,101936.59
2023-04-06T02:10:39.562Z,101936.88
2023-04-06T02:13:07.358Z,101927.41
2023-04-06T02:15:36.443Z,101938.94
2023-04-06T02:18:04.371Z,101935.56
2023-04-06T02:20:32.565Z,101934.72
2023-04-06T02:23:01.363Z,101937.34
2023-04-06T02:25:29.558Z,101934.44
2023-04-06T02:27:57.334Z,101936.78
2023-04-06T02:30:25.012Z,101926.97
2023-04-06T02:32:54.132Z,101929.28
2023-04-06T02:35:22.043Z,101930.00
2023-04-06T02:37:49.707Z,101934.53
2023-04-06T02:40:17.472Z,101926.00
2023-04-06T02:42:45.287Z,101925.28
2023-04-06T02:45:12.984Z,101922.09
2023-04-06T02:47:40.955Z,101916.22
2023-04-06T02:50:11.068Z,101926.13
2023-04-06T02:52:38.786Z,101928.75
2023-04-06T02:55:08.667Z,101930.59
2023-04-06T02:57:36.752Z,101923.91
2023-04-06T03:00:05.106Z,101928.38
2023-04-06T03:02:32.875Z,101925.75
2023-04-06T03:05:00.684Z,101922.28
2023-04-06T03:07:29.707Z,101923.13
2023-04-06T03:09:57.457Z,101921.53
2023-04-06T03:12:25.353Z,101922.56
2023-04-06T03:14:53.114Z,101919.22
2023-04-06T03:17:20.820Z,101921.91
2023-04-06T03:19:48.458Z,101916.88
2023-04-06T03:22:16.610Z,101920.53
2023-04-06T03:24:45.676Z,101919.84
2023-04-06T03:27:13.400Z,101918.09
2023-04-06T03:29:41.104Z,101923.50
2023-04-06T03:32:10.619Z,101920.16
2023-04-06T03:34:38.866Z,101921.25
2023-04-06T03:37:10.325Z,101924.00
2023-04-06T03:39:38.790Z,101923.31
2023-04-06T03:42:08.031Z,101923.59
2023-04-06T03:44:36.013Z,101920.13
2023-04-06T03:47:03.941Z,101926.38
2023-04-06T03:49:31.697Z,101925.66
2023-04-06T03:51:59.498Z,101929.97
2023-04-06T03:54:27.249Z,101924.63
2023-04-06T03:56:54.946Z,101930.69
2023-04-06T03:59:24.173Z,101928.94
2023-04-06T04:01:52.116Z,101928.63
2023-04-06T04:04:19.841Z,101928.56
2023-04-06T04:06:47.593Z,101934.53
2023-04-06T04:09:15.427Z,101937.06
2023-04-06T04:11:43.249Z,101923.03
2023-04-06T04:14:10.973Z,101934.28
2023-04-06T04:16:40.637Z,101936.13
2023-04-06T04:19:08.588Z,101937.06
2023-04-06T04:21:44.906Z,101930.22
2023-04-06T04:24:12.628Z,101929.47
2023-04-06T04:26:41.388Z,101925.34
2023-04-06T04:29:09.444Z,101934.16
2023-04-06T04:31:37.551Z,101928.16
2023-04-06T04:34:07.773Z,101932.66
2023-04-06T04:36:35.583Z,101925.81
2023-04-06T04:39:03.641Z,101925.09
2023-04-06T04:41:31.708Z,101930.22
2023-04-06T04:43:59.535Z,101929.38
2023-04-06T04:46:27.333Z,101933.69
2023-04-06T04:48:55.144Z,101929.19
2023-04-06T04:51:25.584Z,101931.81
2023-04-06T04:53:53.243Z,101928.16
2023-04-06T04:56:20.918Z,101931.63
2023-04-06T04:58:48.605Z,101930.69
2023-04-06T05:01:16.763Z,101931.34
2023-04-06T05:03:44.697Z,101935.47
2023-04-06T05:06:13.498Z,101935.84
2023-04-06T05:08:42.962Z,101931.84
2023-04-06T05:11:11.205Z,101932.19
2023-04-06T05:13:39.212Z,101939.50
2023-04-06T05:16:07.904Z,101932.84
2023-04-06T05:18:35.773Z,101926.38
2023-04-06T05:21:03.537Z,101933.97
2023-04-06T05:23:31.254Z,101932.63
2023-04-06T05:26:00.340Z,101930.59
2023-04-06T05:28:28.053Z,101934.59
2023-04-06T05:30:55.881Z,101930.94
2023-04-06T05:33:23.571Z,101937.50
2023-04-06T05:35:51.389Z,101932.66
2023-04-06T05:38:19.050Z,101934.34
2023-04-06T05:40:46.931Z,101921.09
2023-04-06T05:43:16.298Z,101928.06
2023-04-06T05:45:47.141Z,101923.03
2023-04-06T05:48:15.377Z,101919.38
2023-04-06T05:50:43.057Z,101921.59
2023-04-06T05:53:10.794Z,101922.31
2023-04-06T05:55:38.449Z,101921.63
2023-04-06T05:58:06.120Z,101915.84
2023-04-06T06:00:35.454Z,101918.09
2023-04-06T06:03:05.179Z,101918.66
2023-04-06T06:05:32.925Z,101912.56
2023-04-06T06:08:03.303Z,101906.13
2023-04-06T06:10:31.232Z,101905.38
2023-04-06T06:12:59.066Z,101909.75
2023-04-06T06:15:27.053Z,101906.00
2023-04-06T06:17:56.235Z,101901.91
2023-04-06T06:20:24.145Z,101907.94
2023-04-06T06:22:51.911Z,101913.34
2023-04-06T06:25:19.975Z,101911.56
2023-04-06T06:27:47.722Z,101905.19
2023-04-06T06:30:15.969Z,101902.66
2023-04-06T06:32:43.761Z,101904.13
2023-04-06T06:35:12.824Z,101908.38
2023-04-06T06:37:40.521Z,101900.88
2023-04-06T06:40:09.433Z,101906.00
2023-04-06T06:42:37.346Z,101902.31
2023-04-06T06:45:05.829Z,101900.66
2023-04-06T06:47:33.701Z,101901.50
2023-04-06T06:50:01.613Z,101899.66
2023-04-06T06:52:30.883Z,101905.19
2023-04-06T06:54:58.614Z,101896.44
2023-04-06T06:57:28.358Z,101896.69
2023-04-06T06:59:56.046Z,101903.94
2023-04-06T07:02:23.721Z,101899.38
2023-04-06T07:04:51.504Z,101895.38
2023-04-06T07:07:19.387Z,101895.41
2023-04-06T07:09:48.538Z,101897.03
2023-04-06T07:12:17.502Z,101886.88
2023-04-06T07:14:45.284Z,101889.69
2023-04-06T07:17:12.981Z,101895.00
2023-04-06T07:19:41.589Z,101888.03
2023-04-06T07:22:09.321Z,101902.59
2023-04-06T07:24:37.123Z,101895.72
2023-04-06T07:27:06.238Z,101898.47
2023-04-06T07:29:33.919Z,101889.28
2023-04-06T07:32:01.987Z,101900.22
2023-04-06T07:34:29.812Z,101894.06
2023-04-06T07:36:57.687Z,101896.44
2023-04-06T07:39:27.239Z,101896.19
2023-04-06T07:41:54.956Z,101901.03
2023-04-06T07:44:24.366Z,101902.88
2023-04-06T07:46:52.041Z,101895.03
2023-04-06T07:49:21.673Z,101897.88
2023-04-06T07:51:49.768Z,101896.38
2023-04-06T07:54:17.446Z,101896.03
2023-04-06T07:56:45.217Z,101896.16
2023-04-06T07:59:14.620Z,101889.97
2023-04-06T08:01:43.679Z,101889.28
2023-04-06T08:04:11.579Z,101881.34
2023-04-06T08:06:39.701Z,101886.72
2023-04-06T08:09:07.394Z,101891.69
2023-04-06T08:11:35.322Z,101880.38
2023-04-06T08:14:03.003Z,101886.03
2023-04-06T08:16:30.704Z,101878.03
2023-04-06T08:18:59.845Z,101888.16
2023-04-06T08:21:27.661Z,101888.31
2023-04-06T08:23:55.354Z,101883.97
2023-04-06T08:26:23.399Z,101886.47
2023-04-06T08:28:51.380Z,101885.47
2023-04-06T08:31:19.169Z,101887.84
2023-04-06T08:33:46.924Z,101874.88
2023-04-06T08:36:19.261Z,101878.69
2023-04-06T08:38:46.933Z,101885.34
2023-04-06T08:41:16.042Z,101872.31
2023-04-06T08:43:46.178Z,101879.19
2023-04-06T08:46:13.971Z,101873.19
2023-04-06T08:48:43.197Z,101876.69
2023-04-06T08:51:11.952Z,101870.16
2023-04-06T08:53:43.930Z,101871.34
2023-04-06T08:56:13.133Z,101866.50
2023-04-06T08:58:42.262Z,101869.59
2023-04-06T09:01:12.874Z,101878.25
2023-04-06T09:03:42.481Z,101874.94
2023-04-06T09:06:10.803Z,101873.59
2023-04-06T09:08:44.111Z,101868.72
2023-04-06T09:11:11.854Z,101865.88
2023-04-06T09:13:50.310Z,101869.13
2023-04-06T09:16:18.351Z,101865.72
2023-04-06T09:18:46.729Z,101857.56
2023-04-06T09:21:14.585Z,101870.50
2023-04-06T09:23:43.710Z,101867.53
2023-04-06T09:26:12.656Z,101863.69
2023-04-06T09:28:49.095Z,101854.94
2023-04-06T09:31:17.810Z,101856.72
2023-04-06T09:33:47.622Z,101864.66
2023-04-06T09:36:17.592Z,101854.59
2023-04-06T09:38:57.615Z,101853.19
2023-04-06T09:41:26.710Z,101844.91
2023-04-06T09:44:03.342Z,101842.38
2023-04-06T09:46:42.999Z,101849.75
2023-04-06T09:49:20.798Z,101848.31
2023-04-06T09:51:54.157Z,101850.03
2023-04-06T09:54:24.260Z,101845.28
2023-04-06T09:56:58.220Z,101844.13
2023-04-06T09:59:33.720Z,101847.81
2023-04-06T10:02:02.372Z,101845.69
2023-04-06T10:04:38.818Z,101837.31
2023-04-06T10:07:08.811Z,101839.78
2023-04-06T10:09:39.146Z,101841.31
2023-04-06T10:12:07.881Z,101840.75
2023-04-06T10:14:37.778Z,101836.38
2023-04-06T10:17:06.604Z,101836.66
2023-04-06T10:19:41.579Z,101824.69
2023-04-06T10:22:12.830Z,101832.63
2023-04-06T10:24:42.257Z,101832.97
2023-04-06T10:27:12.253Z,101833.50
2023-04-06T10:29:47.520Z,101822.22
2023-04-06T10:32:15.969Z,101829.38
2023-04-06T10:34:43.692Z,101826.97
2023-04-06T10:37:19.818Z,101831.78
2023-04-06T10:39:49.864Z,101826.50
2023-04-06T10:42:18.026Z,101829.28
2023-04-06T10:44:46.501Z,101828.63
2023-04-06T10:47:20.910Z,101820.16
2023-04-06T10:49:48.753Z,101822.19
2023-04-06T10:52:16.501Z,101826.91
2023-04-06T10:54:46.959Z,101814.53
2023-04-06T10:57:17.423Z,101813.94
2023-04-06T10:59:46.174Z,101821.56
2023-04-06T11:02:22.333Z,101822.94
2023-04-06T11:04:57.550Z,101814.94
2023-04-06T11:07:25.970Z,101804.00
2023-04-06T11:10:09.259Z,101810.59
2023-04-06T11:12:42.101Z,101805.63
2023-04-06T11:15:10.932Z,101806.56
2023-04-06T11:17:39.410Z,101809.59
2023-04-06T11:20:12.749Z,101804.56
2023-04-06T11:22:50.766Z,101797.31
2023-04-06T11:25:18.959Z,101800.03
2023-04-06T11:27:48.793Z,101804.19
2023-04-06T11:30:16.925Z,101800.03
2023-04-06T11:32:46.652Z,101804.38
2023-04-06T11:35:21.935Z,101795.88
2023-04-06T11:37:50.833Z,101796.19
2023-04-06T11:40:23.324Z,101803.09
2023-04-06T11:42:56.405Z,101794.00
2023-04-06T11:45:24.623Z,101793.56
2023-04-06T11:47:59.247Z,101786.25
2023-04-06T11:50:27.274Z,101786.38
2023-04-06T11:53:02.144Z,101787.16
2023-04-06T11:55:32.293Z,101792.41
2023-04-06T11:58:02.797Z,101786.53
2023-04-06T12:00:35.396Z,101779.00
2023-04-06T12:03:03.193Z,101780.22
2023-04-06T12:05:31.013Z,101788.84
2023-04-06T12:08:01.083Z,101783.41
2023-04-06T12:10:31.318Z,101779.47
2023-04-06T12:12:59.025Z,101773.56
2023-04-06T12:15:28.180Z,101776.75
2023-04-06T12:17:55.915Z,101768.69
2023-04-06T12:20:27.124Z,101767.22
2023-04-06T12:22:55.337Z,101780.31
2023-04-06T12:25:23.048Z,101766.78
2023-04-06T12:27:50.837Z,101766.34
2023-04-06T12:30:18.825Z,101768.28
2023-04-06T12:32:50.434Z,101760.84
2023-04-06T12:35:19.076Z,101752.03
2023-04-06T12:37:46.910Z,101752.81
2023-04-06T12:40:15.759Z,101753.97
2023-04-06T12:42:43.822Z,101743.19
2023-04-06T12:45:12.627Z,101755.88
2023-04-06T12:47:40.410Z,101756.13
2023-04-06T12:50:10.430Z,101751.66
2023-04-06T12:52:38.192Z,101747.16
2023-04-06T12:55:07.065Z,101751.06
2023-04-06T12:57:34.773Z,101754.66
2023-04-06T13:00:02.792Z,101747.84
2023-04-06T13:02:32.056Z,101746.19
2023-04-06T13:05:00.297Z,101739.00
2023-04-06T13:07:29.846Z,101730.31
2023-04-06T13:09:57.786Z,101730.59
2023-04-06T13:12:26.287Z,101734.28
2023-04-06T13:14:53.911Z,101733.69
2023-04-06T13:17:22.139Z,101729.75
2023-04-06T13:19:49.935Z,101722.88
2023-04-06T13:22:17.937Z,101732.09
2023-04-06T13:24:47.319Z,101721.25
2023-04-06T13:27:15.046Z,101718.59
2023-04-06T13:29:42.755Z,101711.72
2023-04-06T13:32:11.262Z,101716.38
2023-04-06T13:34:39.047Z,101730.72
2023-04-06T13:37:06.841Z,101714.06
2023-04-06T13:39:34.471Z,101715.47
2023-04-06T13:42:04.152Z,101720.44
2023-04-06T13:44:32.006Z,101722.88
2023-04-06T13:46:59.681Z,101715.84
2023-04-06T13:49:27.617Z,101715.25
2023-04-06T13:51:55.292Z,101712.00
2023-04-06T13:54:23.072Z,101706.56
2023-04-06T13:56:50.809Z,101712.69
2023-04-06T13:59:19.979Z,101713.91
2023-04-06T14:01:48.321Z,101710.81
2023-04-06T14:04:16.011Z,101709.69
2023-04-06T14:06:43.591Z,101709.41
2023-04-06T14:09:11.806Z,101702.34
2023-04-06T14:11:39.526Z,101703.97
2023-04-06T14:14:07.142Z,101709.22
2023-04-06T14:16:36.440Z,101693.94
2023-04-06T14:19:04.164Z,101684.75
2023-04-06T14:21:32.383Z,101695.47
2023-04-06T14:24:00.058Z,101698.16
2023-04-06T14:26:28.452Z,101698.16
2023-04-06T14:28:56.703Z,101694.94
2023-04-06T14:31:24.633Z,101701.31
2023-04-06T14:33:54.468Z,101698.00
2023-04-06T14:36:22.115Z,101691.41
2023-04-06T14:38:50.009Z,101694.97
2023-04-06T14:41:18.962Z,101689.28
2023-04-06T14:43:48.121Z,101684.94
2023-04-06T14:46:16.662Z,101687.28
2023-04-06T14:48:44.290Z,101678.41
2023-04-06T14:51:13.821Z,101677.50
2023-04-06T14:53:41.448Z,101678.13
2023-04-06T14:56:09.312Z,101681.75
2023-04-06T14:58:37.229Z,101677.91
2023-04-06T15:01:04.923Z,101677.91
2023-04-06T15:03:32.801Z,101672.38
2023-04-06T15:06:00.879Z,101675.09
2023-04-06T15:08:29.827Z,101676.72
2023-04-06T15:11:01.137Z,101670.25
2023-04-06T15:13:29.229Z,101672.69
2023-04-06T15:15:57.469Z,101671.31
2023-04-06T15:18:25.509Z,101669.03
2023-04-06T15:20:53.696Z,101666.94
2023-04-06T15:23:21.452Z,101669.53
2023-04-06T15:25:50.580Z,101667.81
2023-04-06T15:28:18.314Z,101663.41
2023-04-06T15:30:46.303Z,101671.44
2023-04-06T15:33:14.047Z,101665.09
2023-04-06T15:35:43.418Z,101662.66
2023-04-06T15:38:11.882Z,101663.13
2023-04-06T15:40:45.544Z,101660.91
2023-04-06T15:43:14.785Z,101663.09
2023-04-06T15:45:42.698Z,101658.44
2023-04-06T15:48:10.348Z,101659.50
2023-04-06T15:50:39.037Z,101648.78
2023-04-06T15:53:07.206Z,101654.06
2023-04-06T15:55:35.149Z,101653.63
2023-04-06T15:58:02.779Z,101653.63
2023-04-06T16:00:32.288Z,101657.66
2023-04-06T16:03:00.148Z,101656.34
2023-04-06T16:05:34.044Z,101666.72
2023-04-06T16:08:02.354Z,101670.47
2023-04-06T16:10:29.926Z,101663.97
2023-04-06T16:12:57.702Z,101660.41
2023-04-06T16:15:25.504Z,101661.34
2023-04-06T16:17:54.604Z,101651.38
2023-04-06T16:20:22.274Z,101664.50
2023-04-06T16:22:50.387Z,101665.41
2023-04-06T16:25:18.163Z,101679.84
2023-04-06T16:27:45.943Z,101678.72
2023-04-06T16:30:13.919Z,101683.56
2023-04-06T16:32:41.581Z,101681.38
2023-04-06T16:35:11.272Z,101669.25
2023-04-06T16:37:38.960Z,101671.69
2023-04-06T16:40:08.434Z,101669.72
2023-04-06T16:42:36.178Z,101671.47
2023-04-06T16:45:03.946Z,101667.31
2023-04-06T16:47:31.761Z,101669.31
2023-04-06T16:50:05.955Z,101669.88
2023-04-06T16:52:35.742Z,101674.03
2023-04-06T16:55:03.454Z,101674.63
2023-04-06T16:57:31.151Z,101672.47
2023-04-06T16:59:58.991Z,101679.78
2023-04-06T17:02:26.968Z,101675.00
2023-04-06T17:04:54.812Z,101677.50
2023-04-06T17:07:26.353Z,101674.72
2023-04-06T17:09:55.288Z,101672.03
2023-04-06T17:12:22.951Z,101681.03
2023-04-06T17:14:50.761Z,101677.34
2023-04-06T17:17:18.535Z,101686.53
2023-04-06T17:19:46.238Z,101695.63
2023-04-06T17:22:13.971Z,101689.66
2023-04-06T17:24:41.577Z,101698.09
2023-04-06T17:27:10.645Z,101699.91
2023-04-06T17:29:38.238Z,101686.06
2023-04-06T17:32:06.449Z,101704.47
2023-04-06T17:34:34.105Z,101704.91
2023-04-06T17:37:03.680Z,101703.88
2023-04-06T17:39:31.291Z,101706.81
2023-04-06T17:41:59.797Z,101711.69
2023-04-06T17:44:28.797Z,101711.50
2023-04-06T17:46:56.548Z,101714.94
2023-04-06T17:49:24.353Z,101712.75
2023-04-06T17:51:52.052Z,101720.47
2023-04-06T17:54:21.128Z,101726.38
2023-04-06T17:56:51.451Z,101731.59
2023-04-06T17:59:19.176Z,101731.56
2023-04-06T18:01:49.150Z,101737.16
2023-04-06T18:04:16.863Z,101742.84
2023-04-06T18:06:44.954Z,101741.41
2023-04-06T18:09:12.638Z,101743.00
2023-04-06T18:11:40.374Z,101752.72
2023-04-06T18:14:09.181Z,101738.38
2023-04-06T18:16:36.795Z,101750.41
2023-04-06T18:19:05.926Z,101742.59
2023-04-06T18:21:34.171Z,101750.34
2023-04-06T18:24:04.995Z,101761.22
2023-04-06T18:26:34.922Z,101764.31
2023-04-06T18:29:02.540Z,101763.94
2023-04-06T18:31:30.828Z,101770.66
2023-04-06T18:33:58.834Z,101779.72
2023-04-06T18:36:28.425Z,101768.72
2023-04-06T18:38:56.182Z,101775.28
2023-04-06T18:41:24.202Z,101777.56
2023-04-06T18:43:51.953Z,101784.28
2023-04-06T18:46:20.418Z,101785.69
2023-04-06T18:48:48.203Z,101778.03
2023-04-06T18:51:15.969Z,101789.34
2023-04-06T18:53:45.161Z,101791.59
2023-04-06T18:56:17.524Z,101791.88
2023-04-06T18:58:45.953Z,101793.16
2023-04-06T19:01:21.444Z,101788.44
2023-04-06T19:03:49.233Z,101795.00
2023-04-06T19:06:16.973Z,101788.44
2023-04-06T19:08:46.083Z,101796.81
2023-04-06T19:11:14.059Z,101802.38
2023-04-06T19:13:42.144Z,101794.88
2023-04-06T19:16:10.812Z,101796.97
2023-04-06T19:18:42.484Z,101801.56
2023-04-06T19:21:16.669Z,101795.84
2023-04-06T19:23:46.163Z,101796.25
2023-04-06T19:26:14.694Z,101801.13
2023-04-06T19:28:42.294Z,101804.06
2023-04-06T19:31:11.255Z,101809.63
2023-04-06T19:33:39.546Z,101808.91
2023-04-06T19:36:08.420Z,101805.72
2023-04-06T19:38:36.733Z,101816.44
2023-04-06T19:41:05.945Z,101823.81
2023-04-06T19:43:34.840Z,101809.06
2023-04-06T19:46:02.603Z,101811.13
2023-04-06T19:48:30.853Z,101812.41
2023-04-06T19:50:58.857Z,101809.03
2023-04-06T19:53:26.530Z,101811.00
2023-04-06T19:55:54.356Z,101821.03
2023-04-06T19:58:23.623Z,101822.81
2023-04-06T20:00:51.503Z,101821.28
2023-04-06T20:03:19.226Z,101817.13
2023-04-06T20:05:47.671Z,101820.72
2023-04-06T20:08:15.351Z,101812.22
2023-04-06T20:10:42.927Z,101815.03
2023-04-06T20:13:10.725Z,101822.38
2023-04-06T20:15:39.765Z,101820.97
2023-04-06T20:18:07.649Z,101813.19
2023-04-06T20:20:35.465Z,101825.84
2023-04-06T20:23:03.084Z,101821.50
2023-04-06T20:25:30.742Z,101822.63
2023-04-06T20:27:58.362Z,101819.44
2023-04-06T20:30:26.299Z,101824.00
2023-04-06T20:32:55.282Z,101811.91
2023-04-06T20:35:23.047Z,101822.47
2023-04-06T20:37:51.082Z,101824.53
2023-04-06T20:40:18.982Z,101813.41
2023-04-06T20:42:47.933Z,101814.50
2023-04-06T20:45:15.609Z,101827.88
2023-04-06T20:47:43.619Z,101822.00
2023-04-06T20:50:13.387Z,101823.69
2023-04-06T20:52:40.999Z,101824.91
2023-04-06T20:55:09.377Z,101826.88
2023-04-06T20:57:36.954Z,101824.34
2023-04-06T21:00:05.274Z,101813.91
2023-04-06T21:02:33.443Z,101809.88
2023-04-06T21:05:01.277Z,101810.13
2023-04-06T21:07:30.389Z,101810.41
2023-04-06T21:09:58.357Z,101819.28
2023-04-06T21:12:26.990Z,101812.34
2023-04-06T21:14:54.611Z,101813.31
2023-04-06T21:17:22.309Z,101820.53
2023-04-06T21:19:50.166Z,101814.53
2023-04-06T21:22:17.734Z,101811.19
2023-04-06T21:24:46.760Z,101800.63
2023-04-06T21:27:14.387Z,101804.38
2023-04-06T21:29:42.145Z,101809.78
2023-04-06T21:32:09.880Z,101800.19
2023-04-06T21:34:37.582Z,101810.88
2023-04-06T21:37:05.190Z,101810.19
2023-04-06T21:39:32.912Z,101814.03
2023-04-06T21:42:01.949Z,101810.56
2023-04-06T21:44:29.568Z,101808.06
2023-04-06T21:46:57.214Z,101816.94
2023-04-06T21:49:24.865Z,101808.19
2023-04-06T21:51:52.553Z,101806.25
2023-04-06T21:54:20.505Z,101796.66
2023-04-06T21:56:48.438Z,101803.75
2023-04-06T21:59:17.403Z,101802.63
2023-04-06T22:01:45.019Z,101798.19
2023-04-06T22:04:12.913Z,101806.00
2023-04-06T22:06:41.721Z,101804.63
2023-04-06T22:09:09.651Z,101802.56
2023-04-06T22:11:37.287Z,101797.28
2023-04-06T22:14:06.699Z,101799.94
2023-04-06T22:16:35.788Z,101803.84
2023-04-06T22:19:03.746Z,101800.25
2023-04-06T22:21:31.704Z,101803.44
2023-04-06T22:23:59.320Z,101797.06
2023-04-06T22:26:27.080Z,101797.34
2023-04-06T22:28:55.106Z,101792.63
2023-04-06T22:31:23.184Z,101800.56
2023-04-06T22:33:52.296Z,101797.81
2023-04-06T22:36:19.948Z,101802.81
2023-04-06T22:38:49.238Z,101800.88
2023-04-06T22:41:16.882Z,101800.59
2023-04-06T22:43:44.846Z,101796.00
2023-04-06T22:46:12.620Z,101800.31
2023-04-06T22:48:40.195Z,101799.38
2023-04-06T22:51:09.277Z,101806.56
2023-04-06T22:53:37.073Z,101809.38
2023-04-06T22:56:04.856Z,101806.84
2023-04-06T22:58:32.494Z,101809.50
2023-04-06T23:01:00.194Z,101807.84
2023-04-06T23:03:27.947Z,101808.09
2023-04-06T23:05:55.602Z,101816.03
2023-04-06T23:08:27.464Z,101813.66
2023-04-06T23:10:55.052Z,101805.84
2023-04-06T23:13:22.687Z,101813.19
2023-04-06T23:15:50.374Z,101818.91
2023-04-06T23:18:18.116Z,101818.47
2023-04-06T23:20:45.951Z,101812.72
2023-04-06T23:23:13.681Z,101814.09
2023-04-06T23:25:42.833Z,101817.25
2023-04-06T23:28:10.725Z,101816.84
2023-04-06T23:30:38.308Z,101818.06
2023-04-06T23:33:06.139Z,101827.19
2023-04-06T23:35:33.820Z,101820.63
2023-04-06T23:38:01.576Z,101818.41
2023-04-06T23:40:29.221Z,101827.53
2023-04-06T23:42:58.353Z,101823.50
2023-04-06T23:45:26.663Z,101828.19
2023-04-06T23:47:54.639Z,101829.41
2023-04-06T23:50:22.414Z,101822.00
2023-04-06T23:52:50.164Z,101825.75
2023-04-06T23:55:18.140Z,101822.53
2023-04-06T23:57:45.725Z,101827.22
